sensor_id;sensor_type;location;lat;lon;timestamp;pressure;altitude;pressure_sealevel;temperature;humidity
1736;BME280;865;53.672;10.250;2023-05-11T00:00:34;101079.66;;;11.43;100.00
1736;BME280;865;53.672;10.250;2023-05-11T00:03:01;101088.31;;;11.45;100.00
1736;BME280;865;53.672;10.250;2023-05-11T00:05:27;101083.34;;;11.29;100.00
1736;BME280;865;53.672;10.250;2023-05-11T00:07:53;101088.00;;;11.61;100.00
1736;BME280;865;53.672;10.250;2023-05-11T00:10:20;101088.34;;;11.41;100.00
1736;BME280;865;53.672;10.250;2023-05-11T00:12:46;101086.81;;;11.31;100.00
1736;BME280;865;53.672;10.250;2023-05-11T00:15:12;101083.72;;;11.06;100.00
1736;BME280;865;53.672;10.250;2023-05-11T00:17:39;101092.25;;;11.19;100.00
1736;BME280;865;53.672;10.250;2023-05-11T00:20:06;101099.22;;;11.18;100.00
1736;BME280;865;53.672;10.250;2023-05-11T00:22:32;101100.84;;;11.24;100.00
1736;BME280;865;53.672;10.250;2023-05-11T00:24:59;101098.38;;;11.15;100.00
1736;BME280;865;53.672;10.250;2023-05-11T00:27:25;101094.59;;;11.33;100.00
1736;BME280;865;53.672;10.250;2023-05-11T00:29:51;101098.16;;;11.29;100.00
1736;BME280;865;53.672;10.250;2023-05-11T00:32:18;101095.50;;;11.32;100.00
1736;BME280;865;53.672;10.250;2023-05-11T00:34:44;101092.19;;;11.22;100.00
1736;BME280;865;53.672;10.250;2023-05-11T00:37:10;101091.38;;;11.18;100.00
1736;BME280;865;53.672;10.250;2023-05-11T00:39:37;101094.75;;;11.24;100.00
1736;BME280;865;53.672;10.250;2023-05-11T00:42:05;101092.16;;;11.24;100.00
1736;BME280;865;53.672;10.250;2023-05-11T00:44:32;101094.09;;;11.12;100.00
1736;BME280;865;53.672;10.250;2023-05-11T00:46:58;101100.22;;;11.10;100.00
1736;BME280;865;53.672;10.250;2023-05-11T00:49:25;101086.44;;;11.00;100.00
1736;BME280;865;53.672;10.250;2023-05-11T00:51:51;101092.41;;;11.08;100.00
1736;BME280;865;53.672;10.250;2023-05-11T00:54:18;101096.50;;;11.25;100.00
1736;BME280;865;53.672;10.250;2023-05-11T00:56:45;101099.97;;;11.25;100.00
1736;BME280;865;53.672;10.250;2023-05-11T00:59:11;101098.09;;;11.33;100.00
1736;BME280;865;53.672;10.250;2023-05-11T01:04:08;101091.44;;;11.14;100.00
1736;BME280;865;53.672;10.250;2023-05-11T01:06:46;101094.84;;;11.19;100.00
1736;BME280;865;53.672;10.250;2023-05-11T01:15:01;101098.25;;;11.23;100.00
1736;BME280;865;53.672;10.250;2023-05-11T01:17:46;101097.34;;;11.25;100.00
1736;BME280;865;53.672;10.250;2023-05-11T01:20:17;101096.66;;;11.15;100.00
1736;BME280;865;53.672;10.250;2023-05-11T01:23:09;101093.31;;;11.07;100.00
1736;BME280;865;53.672;10.250;2023-05-11T01:25:52;101088.09;;;11.06;100.00
1736;BME280;865;53.672;10.250;2023-05-11T01:31:10;101098.72;;;10.95;100.00
1736;BME280;865;53.672;10.250;2023-05-11T01:33:53;101097.09;;;10.86;100.00
1736;BME280;865;53.672;10.250;2023-05-11T01:36:24;101103.28;;;10.79;100.00
1736;BME280;865;53.672;10.250;2023-05-11T01:38:56;101099.56;;;10.95;100.00
1736;BME280;865;53.672;10.250;2023-05-11T01:41:27;101106.56;;;10.93;100.00
1736;BME280;865;53.672;10.250;2023-05-11T01:43:57;101098.91;;;10.81;100.00
1736;BME280;865;53.672;10.250;2023-05-11T01:46:29;101108.41;;;10.87;100.00
1736;BME280;865;53.672;10.250;2023-05-11T01:48:57;101109.34;;;10.83;100.00
1736;BME280;865;53.672;10.250;2023-05-11T01:51:28;101113.19;;;11.16;100.00
1736;BME280;865;53.672;10.250;2023-05-11T01:53:57;101110.09;;;11.45;100.00
1736;BME280;865;53.672;10.250;2023-05-11T01:56:25;101102.25;;;11.45;100.00
1736;BME280;865;53.672;10.250;2023-05-11T01:58:54;101105.16;;;11.76;100.00
1736;BME280;865;53.672;10.250;2023-05-11T02:01:23;101100.84;;;11.74;100.00
1736;BME280;865;53.672;10.250;2023-05-11T02:03:50;101105.03;;;11.84;100.00
1736;BME280;865;53.672;10.250;2023-05-11T02:06:18;101100.63;;;11.86;100.00
1736;BME280;865;53.672;10.250;2023-05-11T02:08:45;101100.88;;;11.23;100.00
1736;BME280;865;53.672;10.250;2023-05-11T02:11:14;101109.16;;;10.95;100.00
1736;BME280;865;53.672;10.250;2023-05-11T02:13:42;101112.78;;;10.85;100.00
1736;BME280;865;53.672;10.250;2023-05-11T02:16:11;101114.44;;;10.90;100.00
1736;BME280;865;53.672;10.250;2023-05-11T02:18:39;101112.78;;;10.86;100.00
1736;BME280;865;53.672;10.250;2023-05-11T02:21:08;101123.25;;;10.83;100.00
1736;BME280;865;53.672;10.250;2023-05-11T02:23:36;101123.94;;;10.94;100.00
1736;BME280;865;53.672;10.250;2023-05-11T02:26:03;101123.16;;;10.89;100.00
1736;BME280;865;53.672;10.250;2023-05-11T02:28:31;101124.19;;;10.78;100.00
1736;BME280;865;53.672;10.250;2023-05-11T02:31:01;101123.31;;;10.80;100.00
1736;BME280;865;53.672;10.250;2023-05-11T02:33:34;101130.09;;;10.90;100.00
1736;BME280;865;53.672;10.250;2023-05-11T02:36:02;101124.88;;;10.92;100.00
1736;BME280;865;53.672;10.250;2023-05-11T02:38:33;101136.13;;;10.94;100.00
1736;BME280;865;53.672;10.250;2023-05-11T02:41:03;101133.22;;;11.15;100.00
1736;BME280;865;53.672;10.250;2023-05-11T02:43:34;101133.59;;;11.44;100.00
1736;BME280;865;53.672;10.250;2023-05-11T02:46:05;101131.94;;;11.39;100.00
1736;BME280;865;53.672;10.250;2023-05-11T02:48:37;101132.75;;;10.87;100.00
1736;BME280;865;53.672;10.250;2023-05-11T02:51:06;101127.56;;;10.86;100.00
1736;BME280;865;53.672;10.250;2023-05-11T02:53:35;101132.84;;;10.81;100.00
1736;BME280;865;53.672;10.250;2023-05-11T02:56:03;101132.88;;;10.80;100.00
1736;BME280;865;53.672;10.250;2023-05-11T02:58:29;101137.16;;;10.84;100.00
1736;BME280;865;53.672;10.250;2023-05-11T03:00:57;101138.81;;;10.89;100.00
1736;BME280;865;53.672;10.250;2023-05-11T03:03:25;101144.13;;;10.82;100.00
1736;BME280;865;53.672;10.250;2023-05-11T03:05:51;101140.84;;;10.69;100.00
1736;BME280;865;53.672;10.250;2023-05-11T03:08:18;101135.50;;;10.78;100.00
1736;BME280;865;53.672;10.250;2023-05-11T03:10:45;101137.03;;;10.91;100.00
1736;BME280;865;53.672;10.250;2023-05-11T03:13:12;101144.81;;;10.94;100.00
1736;BME280;865;53.672;10.250;2023-05-11T03:15:39;101141.38;;;10.92;100.00
1736;BME280;865;53.672;10.250;2023-05-11T03:18:07;101139.59;;;10.96;100.00
1736;BME280;865;53.672;10.250;2023-05-11T03:20:36;101139.59;;;10.94;100.00
1736;BME280;865;53.672;10.250;2023-05-11T03:23:05;101143.19;;;10.87;100.00
1736;BME280;865;53.672;10.250;2023-05-11T03:25:32;101142.28;;;10.88;100.00
1736;BME280;865;53.672;10.250;2023-05-11T03:27:59;101140.75;;;10.73;100.00
1736;BME280;865;53.672;10.250;2023-05-11T03:30:27;101139.88;;;10.76;100.00
1736;BME280;865;53.672;10.250;2023-05-11T03:32:54;101145.13;;;10.73;100.00
1736;BME280;865;53.672;10.250;2023-05-11T03:35:23;101139.88;;;10.76;100.00
1736;BME280;865;53.672;10.250;2023-05-11T03:37:51;101154.69;;;10.74;100.00
1736;BME280;865;53.672;10.250;2023-05-11T03:40:20;101141.53;;;10.83;100.00
1736;BME280;865;53.672;10.250;2023-05-11T03:42:51;101144.03;;;10.88;100.00
1736;BME280;865;53.672;10.250;2023-05-11T03:45:19;101137.31;;;10.73;100.00
1736;BME280;865;53.672;10.250;2023-05-11T03:47:47;101144.41;;;10.62;100.00
1736;BME280;865;53.672;10.250;2023-05-11T03:50:16;101147.06;;;10.59;100.00
1736;BME280;865;53.672;10.250;2023-05-11T03:52:43;101148.81;;;10.60;100.00
1736;BME280;865;53.672;10.250;2023-05-11T03:55:09;101150.56;;;10.58;100.00
1736;BME280;865;53.672;10.250;2023-05-11T03:57:36;101149.66;;;10.60;100.00
1736;BME280;865;53.672;10.250;2023-05-11T04:00:04;101148.72;;;10.66;100.00
1736;BME280;865;53.672;10.250;2023-05-11T04:02:33;101148.53;;;10.78;100.00
1736;BME280;865;53.672;10.250;2023-05-11T04:04:59;101147.66;;;10.79;100.00
1736;BME280;865;53.672;10.250;2023-05-11T04:07:26;101147.22;;;11.10;100.00
1736;BME280;865;53.672;10.250;2023-05-11T04:09:52;101149.34;;;10.83;100.00
1736;BME280;865;53.672;10.250;2023-05-11T04:12:19;101150.16;;;10.87;100.00
1736;BME280;865;53.672;10.250;2023-05-11T04:14:46;101154.50;;;10.88;100.00
1736;BME280;865;53.672;10.250;2023-05-11T04:17:12;101152.91;;;10.76;100.00
1736;BME280;865;53.672;10.250;2023-05-11T04:19:39;101151.16;;;10.80;100.00
1736;BME280;865;53.672;10.250;2023-05-11T04:22:05;101148.59;;;10.75;100.00
1736;BME280;865;53.672;10.250;2023-05-11T04:24:31;101161.72;;;10.67;100.00
1736;BME280;865;53.672;10.250;2023-05-11T04:26:58;101151.19;;;10.73;100.00
1736;BME280;865;53.672;10.250;2023-05-11T04:29:24;101160.47;;;10.98;100.00
1736;BME280;865;53.672;10.250;2023-05-11T04:31:50;101161.91;;;11.17;100.00
1736;BME280;865;53.672;10.250;2023-05-11T04:34:17;101161.13;;;11.10;100.00
1736;BME280;865;53.672;10.250;2023-05-11T04:36:46;101152.72;;;10.88;100.00
1736;BME280;865;53.672;10.250;2023-05-11T04:39:13;101160.56;;;10.88;100.00
1736;BME280;865;53.672;10.250;2023-05-11T04:41:40;101162.13;;;11.02;100.00
1736;BME280;865;53.672;10.250;2023-05-11T04:44:06;101167.44;;;10.95;100.00
1736;BME280;865;53.672;10.250;2023-05-11T04:46:32;101162.13;;;11.02;100.00
1736;BME280;865;53.672;10.250;2023-05-11T04:48:59;101163.84;;;11.03;100.00
1736;BME280;865;53.672;10.250;2023-05-11T04:51:25;101163.66;;;11.16;100.00
1736;BME280;865;53.672;10.250;2023-05-11T04:53:52;101163.88;;;11.01;100.00
1736;BME280;865;53.672;10.250;2023-05-11T04:56:18;101164.53;;;11.15;100.00
1736;BME280;865;53.672;10.250;2023-05-11T04:58:46;101171.38;;;11.23;100.00
1736;BME280;865;53.672;10.250;2023-05-11T05:01:12;101173.91;;;11.27;100.00
1736;BME280;865;53.672;10.250;2023-05-11T05:03:41;101167.72;;;10.77;100.00
1736;BME280;865;53.672;10.250;2023-05-11T05:06:08;101172.75;;;10.89;100.00
1736;BME280;865;53.672;10.250;2023-05-11T05:08:34;101171.69;;;11.03;100.00
1736;BME280;865;53.672;10.250;2023-05-11T05:11:01;101172.63;;;10.99;100.00
1736;BME280;865;53.672;10.250;2023-05-11T05:13:27;101171.66;;;11.04;100.00
1736;BME280;865;53.672;10.250;2023-05-11T05:15:53;101176.56;;;11.26;100.00
1736;BME280;865;53.672;10.250;2023-05-11T05:18:20;101181.72;;;11.29;100.00
1736;BME280;865;53.672;10.250;2023-05-11T05:20:46;101183.25;;;11.44;100.00
1736;BME280;865;53.672;10.250;2023-05-11T05:23:13;101183.50;;;11.28;100.00
1736;BME280;865;53.672;10.250;2023-05-11T05:25:39;101178.59;;;11.07;100.00
1736;BME280;865;53.672;10.250;2023-05-11T05:28:05;101182.69;;;11.23;100.00
1736;BME280;865;53.672;10.250;2023-05-11T05:30:32;101183.38;;;11.34;100.00
1736;BME280;865;53.672;10.250;2023-05-11T05:32:58;101191.41;;;11.22;100.00
1736;BME280;865;53.672;10.250;2023-05-11T05:35:24;101193.00;;;11.32;100.00
1736;BME280;865;53.672;10.250;2023-05-11T05:37:51;101194.78;;;11.29;100.00
1736;BME280;865;53.672;10.250;2023-05-11T05:40:17;101196.66;;;11.22;100.00
1736;BME280;865;53.672;10.250;2023-05-11T05:42:44;101194.78;;;11.30;100.00
1736;BME280;865;53.672;10.250;2023-05-11T05:45:11;101190.53;;;11.23;100.00
1736;BME280;865;53.672;10.250;2023-05-11T05:47:40;101199.97;;;11.33;100.00
1736;BME280;865;53.672;10.250;2023-05-11T05:50:07;101200.63;;;11.46;100.00
1736;BME280;865;53.672;10.250;2023-05-11T05:52:33;101198.97;;;11.39;100.00
1736;BME280;865;53.672;10.250;2023-05-11T05:55:00;101207.91;;;11.26;100.00
1736;BME280;865;53.672;10.250;2023-05-11T05:57:26;101205.25;;;11.27;100.00
1736;BME280;865;53.672;10.250;2023-05-11T05:59:55;101209.03;;;11.08;100.00
1736;BME280;865;53.672;10.250;2023-05-11T06:02:21;101211.97;;;11.42;100.00
1736;BME280;865;53.672;10.250;2023-05-11T06:04:48;101211.72;;;11.59;100.00
1736;BME280;865;53.672;10.250;2023-05-11T06:07:14;101215.38;;;11.49;100.00
1736;BME280;865;53.672;10.250;2023-05-11T06:09:41;101218.78;;;11.54;100.00
1736;BME280;865;53.672;10.250;2023-05-11T06:12:07;101215.28;;;11.55;100.00
1736;BME280;865;53.672;10.250;2023-05-11T06:14:35;101221.31;;;11.57;100.00
1736;BME280;865;53.672;10.250;2023-05-11T06:17:01;101215.94;;;11.69;100.00
1736;BME280;865;53.672;10.250;2023-05-11T06:19:28;101218.66;;;11.61;100.00
1736;BME280;865;53.672;10.250;2023-05-11T06:21:54;101227.31;;;11.65;100.00
1736;BME280;865;53.672;10.250;2023-05-11T06:24:20;101219.97;;;11.90;100.00
1736;BME280;865;53.672;10.250;2023-05-11T06:26:47;101221.91;;;11.74;100.00
1736;BME280;865;53.672;10.250;2023-05-11T06:29:13;101227.03;;;11.80;100.00
1736;BME280;865;53.672;10.250;2023-05-11T06:31:40;101220.88;;;11.88;100.00
1736;BME280;865;53.672;10.250;2023-05-11T06:34:06;101222.34;;;12.02;100.00
1736;BME280;865;53.672;10.250;2023-05-11T06:36:35;101218.56;;;12.19;100.00
1736;BME280;865;53.672;10.250;2023-05-11T06:39:01;101215.75;;;12.29;100.00
1736;BME280;865;53.672;10.250;2023-05-11T06:41:28;101219.34;;;12.22;100.00
1736;BME280;865;53.672;10.250;2023-05-11T06:43:54;101218.44;;;12.25;100.00
1736;BME280;865;53.672;10.250;2023-05-11T06:46:21;101218.84;;;12.48;100.00
1736;BME280;865;53.672;10.250;2023-05-11T06:48:47;101221.47;;;12.48;100.00
1736;BME280;865;53.672;10.250;2023-05-11T06:51:16;101210.16;;;12.48;100.00
1736;BME280;865;53.672;10.250;2023-05-11T06:53:42;101207.22;;;12.63;100.00
1736;BME280;865;53.672;10.250;2023-05-11T06:56:08;101207.47;;;12.51;100.00
1736;BME280;865;53.672;10.250;2023-05-11T06:58:35;101218.06;;;12.45;100.00
1736;BME280;865;53.672;10.250;2023-05-11T07:01:01;101218.78;;;12.51;100.00
1736;BME280;865;53.672;10.250;2023-05-11T07:03:30;101224.88;;;12.52;100.00
1736;BME280;865;53.672;10.250;2023-05-11T07:05:57;101229.38;;;12.45;100.00
1736;BME280;865;53.672;10.250;2023-05-11T07:08:23;101229.06;;;12.61;100.00
1736;BME280;865;53.672;10.250;2023-05-11T07:10:50;101227.09;;;12.73;100.00
1736;BME280;865;53.672;10.250;2023-05-11T07:13:18;101232.28;;;12.75;100.00
1736;BME280;865;53.672;10.250;2023-05-11T07:15:44;101227.09;;;12.73;100.00
1736;BME280;865;53.672;10.250;2023-05-11T07:18:11;101227.97;;;12.72;100.00
1736;BME280;865;53.672;10.250;2023-05-11T07:20:37;101230.63;;;12.69;100.00
1736;BME280;865;53.672;10.250;2023-05-11T07:23:05;101228.28;;;12.57;100.00
1736;BME280;865;53.672;10.250;2023-05-11T07:25:32;101223.63;;;12.70;100.00
1736;BME280;865;53.672;10.250;2023-05-11T07:27:58;101229.69;;;12.73;100.00
1736;BME280;865;53.672;10.250;2023-05-11T07:30:25;101224.47;;;12.73;100.00
1736;BME280;865;53.672;10.250;2023-05-11T07:32:51;101232.66;;;12.57;100.00
1736;BME280;865;53.672;10.250;2023-05-11T07:35:18;101237.84;;;12.58;100.00
1736;BME280;865;53.672;10.250;2023-05-11T07:37:46;101233.50;;;12.57;100.00
1736;BME280;865;53.672;10.250;2023-05-11T07:40:12;101236.41;;;12.43;100.00
1736;BME280;865;53.672;10.250;2023-05-11T07:42:38;101242.31;;;12.53;100.00
1736;BME280;865;53.672;10.250;2023-05-11T07:45:05;101241.34;;;12.57;100.00
1736;BME280;865;53.672;10.250;2023-05-11T07:47:32;101240.44;;;12.60;100.00
1736;BME280;865;53.672;10.250;2023-05-11T07:50:02;101234.13;;;12.70;100.00
1736;BME280;865;53.672;10.250;2023-05-11T07:52:28;101245.28;;;12.80;100.00
1736;BME280;865;53.672;10.250;2023-05-11T07:54:55;101250.59;;;12.76;100.00
1736;BME280;865;53.672;10.250;2023-05-11T07:57:21;101247.97;;;12.76;100.00
1736;BME280;865;53.672;10.250;2023-05-11T07:59:47;101245.22;;;12.83;100.00
1736;BME280;865;53.672;10.250;2023-05-11T08:02:14;101255.34;;;12.98;100.00
1736;BME280;865;53.672;10.250;2023-05-11T08:04:40;101255.44;;;12.93;100.00
1736;BME280;865;53.672;10.250;2023-05-11T08:07:07;101255.09;;;13.10;100.00
1736;BME280;865;53.672;10.250;2023-05-11T08:09:33;101255.13;;;13.09;100.00
1736;BME280;865;53.672;10.250;2023-05-11T08:12:00;101247.84;;;12.83;100.00
1736;BME280;865;53.672;10.250;2023-05-11T08:14:27;101258.97;;;12.49;100.00
1736;BME280;865;53.672;10.250;2023-05-11T08:16:53;101258.34;;;12.36;100.00
1736;BME280;865;53.672;10.250;2023-05-11T08:19:20;101258.47;;;12.30;100.00
1736;BME280;865;53.672;10.250;2023-05-11T08:21:46;101270.56;;;12.36;100.00
1736;BME280;865;53.672;10.250;2023-05-11T08:24:12;101271.31;;;12.42;100.00
1736;BME280;865;53.672;10.250;2023-05-11T08:26:38;101276.13;;;12.64;100.00
1736;BME280;865;53.672;10.250;2023-05-11T08:29:06;101276.88;;;12.70;100.00
1736;BME280;865;53.672;10.250;2023-05-11T08:31:32;101274.25;;;12.70;100.00
1736;BME280;865;53.672;10.250;2023-05-11T08:33:59;101270.13;;;12.59;100.00
1736;BME280;865;53.672;10.250;2023-05-11T08:36:26;101273.16;;;12.81;100.00
1736;BME280;865;53.672;10.250;2023-05-11T08:38:52;101281.16;;;12.74;100.00
1736;BME280;865;53.672;10.250;2023-05-11T08:41:24;101277.56;;;12.78;100.00
1736;BME280;865;53.672;10.250;2023-05-11T08:43:51;101278.41;;;12.82;100.00
1736;BME280;865;53.672;10.250;2023-05-11T08:46:20;101284.22;;;12.95;100.00
1736;BME280;865;53.672;10.250;2023-05-11T08:48:48;101285.47;;;13.17;100.00
1736;BME280;865;53.672;10.250;2023-05-11T08:51:15;101275.22;;;13.08;100.00
1736;BME280;865;53.672;10.250;2023-05-11T08:53:42;101273.34;;;13.13;100.00
1736;BME280;865;53.672;10.250;2023-05-11T08:56:09;101269.09;;;13.08;100.00
1736;BME280;865;53.672;10.250;2023-05-11T08:58:37;101270.59;;;13.19;100.00
1736;BME280;865;53.672;10.250;2023-05-11T09:01:04;101267.97;;;13.19;100.00
1736;BME280;865;53.672;10.250;2023-05-11T09:03:33;101263.09;;;13.04;100.00
1736;BME280;865;53.672;10.250;2023-05-11T09:06:02;101271.03;;;12.99;100.00
1736;BME280;865;53.672;10.250;2023-05-11T09:08:36;101264.19;;;12.94;100.00
1736;BME280;865;53.672;10.250;2023-05-11T09:11:03;101278.88;;;12.99;100.00
1736;BME280;865;53.672;10.250;2023-05-11T09:13:30;101278.75;;;13.06;100.00
1736;BME280;865;53.672;10.250;2023-05-11T09:15:57;101281.16;;;13.16;100.00
1736;BME280;865;53.672;10.250;2023-05-11T09:18:25;101270.41;;;13.30;100.00
1736;BME280;865;53.672;10.250;2023-05-11T09:20:52;101273.22;;;13.19;100.00
1736;BME280;865;53.672;10.250;2023-05-11T09:23:23;101274.06;;;13.20;100.00
1736;BME280;865;53.672;10.250;2023-05-11T09:25:53;101273.75;;;13.35;100.00
1736;BME280;865;53.672;10.250;2023-05-11T09:28:20;101275.81;;;13.21;100.00
1736;BME280;865;53.672;10.250;2023-05-11T09:30:51;101271.97;;;13.39;100.00
1736;BME280;865;53.672;10.250;2023-05-11T09:33:22;101278.94;;;13.38;100.00
1736;BME280;865;53.672;10.250;2023-05-11T09:35:50;101276.22;;;13.44;100.00
1736;BME280;865;53.672;10.250;2023-05-11T09:38:17;101274.38;;;13.48;100.00
1736;BME280;865;53.672;10.250;2023-05-11T09:40:53;101274.16;;;13.57;100.00
1736;BME280;865;53.672;10.250;2023-05-11T09:43:27;101274.94;;;13.61;100.00
1736;BME280;865;53.672;10.250;2023-05-11T09:45:55;101278.13;;;13.74;100.00
1736;BME280;865;53.672;10.250;2023-05-11T09:48:25;101276.94;;;13.50;100.00
1736;BME280;865;53.672;10.250;2023-05-11T09:51:01;101277.66;;;13.56;100.00
1736;BME280;865;53.672;10.250;2023-05-11T09:53:43;101278.47;;;13.58;100.00
1736;BME280;865;53.672;10.250;2023-05-11T09:56:11;101280.88;;;13.67;100.00
1736;BME280;865;53.672;10.250;2023-05-11T09:58:54;101275.72;;;13.64;100.00
1736;BME280;865;53.672;10.250;2023-05-11T10:01:31;101279.56;;;13.87;100.00
1736;BME280;865;53.672;10.250;2023-05-11T10:04:02;101272.63;;;13.83;100.00
1736;BME280;865;53.672;10.250;2023-05-11T10:06:50;101270.53;;;13.63;100.00
1736;BME280;865;53.672;10.250;2023-05-11T10:09:22;101266.91;;;14.03;100.00
1736;BME280;865;53.672;10.250;2023-05-11T10:11:50;101271.13;;;14.08;100.00
1736;BME280;865;53.672;10.250;2023-05-11T10:14:17;101274.69;;;14.06;100.00
1736;BME280;865;53.672;10.250;2023-05-11T10:16:45;101265.88;;;14.08;100.00
1736;BME280;865;53.672;10.250;2023-05-11T10:19:12;101263.66;;;13.93;100.00
1736;BME280;865;53.672;10.250;2023-05-11T10:21:39;101266.91;;;13.67;100.00
1736;BME280;865;53.672;10.250;2023-05-11T10:24:06;101273.94;;;13.66;100.00
1736;BME280;865;53.672;10.250;2023-05-11T10:26:33;101267.84;;;13.64;100.00
1736;BME280;865;53.672;10.250;2023-05-11T10:29:00;101266.44;;;13.87;100.00
1736;BME280;865;53.672;10.250;2023-05-11T10:31:28;101262.53;;;13.67;100.00
1736;BME280;865;53.672;10.250;2023-05-11T10:33:55;101258.13;;;13.70;100.00
1736;BME280;865;53.672;10.250;2023-05-11T10:36:23;101264.38;;;13.64;100.00
1736;BME280;865;53.672;10.250;2023-05-11T10:38:50;101262.03;;;13.52;100.00
1736;BME280;865;53.672;10.250;2023-05-11T10:41:28;101265.88;;;13.74;100.00
1736;BME280;865;53.672;10.250;2023-05-11T10:44:39;101262.47;;;13.71;100.00
1736;BME280;865;53.672;10.250;2023-05-11T10:52:49;101262.19;;;13.81;100.00
1736;BME280;865;53.672;10.250;2023-05-11T10:55:49;101258.25;;;13.99;100.00
1736;BME280;865;53.672;10.250;2023-05-11T10:58:42;101252.50;;;13.85;100.00
1736;BME280;865;53.672;10.250;2023-05-11T11:01:30;101252.25;;;13.94;100.00
1736;BME280;865;53.672;10.250;2023-05-11T11:04:05;101264.25;;;14.04;100.00
1736;BME280;865;53.672;10.250;2023-05-11T11:06:34;101259.44;;;13.87;100.00
1736;BME280;865;53.672;10.250;2023-05-11T11:09:06;101253.78;;;14.03;100.00
1736;BME280;865;53.672;10.250;2023-05-11T11:11:36;101262.69;;;14.30;100.00
1736;BME280;865;53.672;10.250;2023-05-11T11:14:05;101254.63;;;14.05;100.00
1736;BME280;865;53.672;10.250;2023-05-11T11:16:38;101252.53;;;14.18;100.00
1736;BME280;865;53.672;10.250;2023-05-11T11:21:57;101253.84;;;14.01;100.00
1736;BME280;865;53.672;10.250;2023-05-11T11:27:02;101248.88;;;14.57;100.00
1736;BME280;865;53.672;10.250;2023-05-11T11:29:29;101241.53;;;14.69;100.00
1736;BME280;865;53.672;10.250;2023-05-11T11:34:50;101237.13;;;14.36;100.00
1736;BME280;865;53.672;10.250;2023-05-11T11:37:17;101240.56;;;14.40;100.00
1736;BME280;865;53.672;10.250;2023-05-11T11:39:46;101236.09;;;14.44;100.00
1736;BME280;865;53.672;10.250;2023-05-11T11:42:15;101241.03;;;14.56;100.00
1736;BME280;865;53.672;10.250;2023-05-11T11:44:43;101243.53;;;14.61;100.00
1736;BME280;865;53.672;10.250;2023-05-11T11:47:16;101241.53;;;14.69;100.00
1736;BME280;865;53.672;10.250;2023-05-11T11:49:45;101229.97;;;14.74;100.00
1736;BME280;865;53.672;10.250;2023-05-11T11:52:13;101233.06;;;14.89;100.00
1736;BME280;865;53.672;10.250;2023-05-11T11:54:43;101236.19;;;15.01;100.00
1736;BME280;865;53.672;10.250;2023-05-11T11:59:55;101218.75;;;15.27;100.00
1736;BME280;865;53.672;10.250;2023-05-11T12:02:21;101214.13;;;15.35;100.00
1736;BME280;865;53.672;10.250;2023-05-11T12:05:09;101205.09;;;15.44;100.00
1736;BME280;865;53.672;10.250;2023-05-11T12:07:41;101213.44;;;15.57;100.00
1736;BME280;865;53.672;10.250;2023-05-11T12:10:08;101219.31;;;15.65;100.00
1736;BME280;865;53.672;10.250;2023-05-11T12:12:38;101212.13;;;15.70;100.00
1736;BME280;865;53.672;10.250;2023-05-11T12:15:06;101208.97;;;15.59;100.00
1736;BME280;865;53.672;10.250;2023-05-11T12:17:37;101197.66;;;15.83;100.00
1736;BME280;865;53.672;10.250;2023-05-11T12:20:14;101202.50;;;15.95;100.00
1736;BME280;865;53.672;10.250;2023-05-11T12:22:40;101190.69;;;16.07;100.00
1736;BME280;865;53.672;10.250;2023-05-11T12:25:07;101197.22;;;15.95;100.00
1736;BME280;865;53.672;10.250;2023-05-11T12:27:51;101203.72;;;16.10;100.00
1736;BME280;865;53.672;10.250;2023-05-11T12:30:22;101196.53;;;16.15;100.00
1736;BME280;865;53.672;10.250;2023-05-11T12:32:49;101201.06;;;16.35;100.00
1736;BME280;865;53.672;10.250;2023-05-11T12:35:30;101184.88;;;16.46;100.00
1736;BME280;865;53.672;10.250;2023-05-11T12:37:58;101182.28;;;16.45;100.00
1736;BME280;865;53.672;10.250;2023-05-11T12:40:25;101177.78;;;16.25;100.00
1736;BME280;865;53.672;10.250;2023-05-11T12:42:53;101183.59;;;16.09;100.00
1736;BME280;865;53.672;10.250;2023-05-11T12:45:22;101190.88;;;16.26;100.00
1736;BME280;865;53.672;10.250;2023-05-11T12:47:54;101176.59;;;16.33;100.00
1736;BME280;865;53.672;10.250;2023-05-11T12:50:21;101180.19;;;16.31;100.00
1736;BME280;865;53.672;10.250;2023-05-11T12:52:48;101173.56;;;15.95;100.00
1736;BME280;865;53.672;10.250;2023-05-11T12:55:28;101167.75;;;16.11;100.00
1736;BME280;865;53.672;10.250;2023-05-11T12:58:06;101174.44;;;16.20;100.00
1736;BME280;865;53.672;10.250;2023-05-11T13:00:33;101182.81;;;16.31;100.00
1736;BME280;865;53.672;10.250;2023-05-11T13:02:59;101172.75;;;16.18;100.00
1736;BME280;865;53.672;10.250;2023-05-11T13:05:27;101173.59;;;16.19;100.00
1736;BME280;865;53.672;10.250;2023-05-11T13:08:01;101165.84;;;16.39;100.00
1736;BME280;865;53.672;10.250;2023-05-11T13:10:28;101167.88;;;16.31;100.00
1736;BME280;865;53.672;10.250;2023-05-11T13:12:55;101174.81;;;16.57;100.00
1736;BME280;865;53.672;10.250;2023-05-11T13:15:22;101170.41;;;16.58;100.00
1736;BME280;865;53.672;10.250;2023-05-11T13:18:00;101160.91;;;16.30;100.00
1736;BME280;865;53.672;10.250;2023-05-11T13:20:29;101165.00;;;16.14;100.00
1736;BME280;865;53.672;10.250;2023-05-11T13:23:07;101164.31;;;16.32;100.00
1736;BME280;865;53.672;10.250;2023-05-11T13:26:00;101158.59;;;16.45;100.00
1736;BME280;865;53.672;10.250;2023-05-11T13:28:25;101158.59;;;16.68;100.00
1736;BME280;865;53.672;10.250;2023-05-11T13:30:58;101146.81;;;16.31;100.00
1736;BME280;865;53.672;10.250;2023-05-11T13:33:27;101149.72;;;16.47;100.00
1736;BME280;865;53.672;10.250;2023-05-11T13:35:54;101148.16;;;16.65;100.00